sensor_id;sensor_type;location;lat;lon;timestamp;pressure;altitude;pressure_sealevel;temperature;humidity
77019;BME280;66044;53.142;17.962;2023-02-24T00:01:48;100124.02;;;6.78;73.35
77019;BME280;66044;53.142;17.962;2023-02-24T00:04:18;100116.20;;;6.79;73.38
77019;BME280;66044;53.142;17.962;2023-02-24T00:06:47;100115.35;;;6.79;73.46
77019;BME280;66044;53.142;17.962;2023-02-24T00:09:16;100109.38;;;6.78;73.58
77019;BME280;66044;53.142;17.962;2023-02-24T00:11:45;100114.44;;;6.79;73.43
77019;BME280;66044;53.142;17.962;2023-02-24T00:14:15;100112.71;;;6.79;73.57
77019;BME280;66044;53.142;17.962;2023-02-24T00:16:42;100109.20;;;6.79;73.52
77019;BME280;66044;53.142;17.962;2023-02-24T00:19:16;100107.05;;;6.82;73.67
77019;BME280;66044;53.142;17.962;2023-02-24T00:21:44;100110.33;;;6.86;73.31
77019;BME280;66044;53.142;17.962;2023-02-24T00:24:11;100106.92;;;6.89;73.48
77019;BME280;66044;53.142;17.962;2023-02-24T00:26:38;100105.31;;;6.91;73.29
77019;BME280;66044;53.142;17.962;2023-02-24T00:29:07;100096.44;;;6.90;73.35
77019;BME280;66044;53.142;17.962;2023-02-24T00:31:34;100094.98;;;6.88;73.29
77019;BME280;66044;53.142;17.962;2023-02-24T00:34:05;100090.86;;;6.87;73.35
77019;BME280;66044;53.142;17.962;2023-02-24T00:36:32;100089.23;;;6.86;73.28
77019;BME280;66044;53.142;17.962;2023-02-24T00:39:01;100082.48;;;6.84;73.55
77019;BME280;66044;53.142;17.962;2023-02-24T00:41:37;100081.11;;;6.82;73.63
77019;BME280;66044;53.142;17.962;2023-02-24T00:44:06;100083.14;;;6.83;73.34
77019;BME280;66044;53.142;17.962;2023-02-24T00:49:07;100078.66;;;6.83;73.75
77019;BME280;66044;53.142;17.962;2023-02-24T00:51:38;100074.96;;;6.84;73.52
77019;BME280;66044;53.142;17.962;2023-02-24T00:54:06;100077.15;;;6.84;73.54
77019;BME280;66044;53.142;17.962;2023-02-24T00:56:33;100073.60;;;6.83;73.53
77019;BME280;66044;53.142;17.962;2023-02-24T00:59:00;100073.85;;;6.83;73.65
77019;BME280;66044;53.142;17.962;2023-02-24T01:01:30;100073.52;;;6.85;73.40
77019;BME280;66044;53.142;17.962;2023-02-24T01:03:58;100070.95;;;6.87;73.54
77019;BME280;66044;53.142;17.962;2023-02-24T01:06:27;100067.65;;;6.87;73.67
77019;BME280;66044;53.142;17.962;2023-02-24T01:08:56;100065.79;;;6.84;73.82
77019;BME280;66044;53.142;17.962;2023-02-24T01:11:25;100068.13;;;6.83;73.41
77019;BME280;66044;53.142;17.962;2023-02-24T01:14:16;100063.92;;;6.81;73.51
77019;BME280;66044;53.142;17.962;2023-02-24T01:16:43;100059.48;;;6.79;73.65
77019;BME280;66044;53.142;17.962;2023-02-24T01:19:16;100059.71;;;6.79;73.52
77019;BME280;66044;53.142;17.962;2023-02-24T01:21:44;100057.95;;;6.79;73.60
77019;BME280;66044;53.142;17.962;2023-02-24T01:24:16;100058.34;;;6.81;73.45
77019;BME280;66044;53.142;17.962;2023-02-24T01:26:43;100051.05;;;6.82;73.65
77019;BME280;66044;53.142;17.962;2023-02-24T01:29:09;100048.91;;;6.81;73.65
77019;BME280;66044;53.142;17.962;2023-02-24T01:31:37;100045.84;;;6.81;73.60
77019;BME280;66044;53.142;17.962;2023-02-24T01:34:04;100044.92;;;6.81;73.90
77019;BME280;66044;53.142;17.962;2023-02-24T01:36:32;100039.55;;;6.80;73.86
77019;BME280;66044;53.142;17.962;2023-02-24T01:39:00;100041.63;;;6.81;73.98
77019;BME280;66044;53.142;17.962;2023-02-24T01:41:26;100035.82;;;6.82;73.83
77019;BME280;66044;53.142;17.962;2023-02-24T01:43:59;100029.10;;;6.82;73.85
77019;BME280;66044;53.142;17.962;2023-02-24T01:46:35;100031.83;;;6.82;73.78
77019;BME280;66044;53.142;17.962;2023-02-24T01:49:28;100029.95;;;6.81;73.83
77019;BME280;66044;53.142;17.962;2023-02-24T01:52:03;100025.16;;;6.78;73.85
77019;BME280;66044;53.142;17.962;2023-02-24T01:54:39;100023.27;;;6.76;74.05
77019;BME280;66044;53.142;17.962;2023-02-24T01:57:09;100017.27;;;6.75;74.04
77019;BME280;66044;53.142;17.962;2023-02-24T01:59:43;100012.34;;;6.74;73.94
77019;BME280;66044;53.142;17.962;2023-02-24T02:02:11;100005.55;;;6.72;73.91
77019;BME280;66044;53.142;17.962;2023-02-24T02:04:56;100005.05;;;6.71;74.22
77019;BME280;66044;53.142;17.962;2023-02-24T02:07:26;100004.77;;;6.70;74.09
77019;BME280;66044;53.142;17.962;2023-02-24T02:09:54;100000.34;;;6.70;74.21
77019;BME280;66044;53.142;17.962;2023-02-24T02:12:26;99999.39;;;6.71;74.15
77019;BME280;66044;53.142;17.962;2023-02-24T02:14:55;99998.92;;;6.72;73.84
77019;BME280;66044;53.142;17.962;2023-02-24T02:20:27;99993.17;;;6.71;74.17
77019;BME280;66044;53.142;17.962;2023-02-24T02:23:37;99990.83;;;6.72;74.36
77019;BME280;66044;53.142;17.962;2023-02-24T02:29:27;99987.84;;;6.70;74.27
77019;BME280;66044;53.142;17.962;2023-02-24T02:32:15;99986.92;;;6.68;74.36
77019;BME280;66044;53.142;17.962;2023-02-24T02:35:06;99987.36;;;6.67;74.29
77019;BME280;66044;53.142;17.962;2023-02-24T02:37:57;99985.16;;;6.66;74.33
77019;BME280;66044;53.142;17.962;2023-02-24T02:40:44;99983.46;;;6.65;74.47
77019;BME280;66044;53.142;17.962;2023-02-24T02:43:22;99980.83;;;6.66;74.27
77019;BME280;66044;53.142;17.962;2023-02-24T02:46:07;99977.25;;;6.64;74.29
77019;BME280;66044;53.142;17.962;2023-02-24T02:48:47;99975.45;;;6.64;74.48
77019;BME280;66044;53.142;17.962;2023-02-24T02:51:20;99977.71;;;6.65;74.54
77019;BME280;66044;53.142;17.962;2023-02-24T02:53:59;99976.27;;;6.65;74.62
77019;BME280;66044;53.142;17.962;2023-02-24T02:56:35;99971.82;;;6.66;74.40
77019;BME280;66044;53.142;17.962;2023-02-24T02:59:03;99967.02;;;6.66;74.28
77019;BME280;66044;53.142;17.962;2023-02-24T03:01:34;99963.81;;;6.68;74.49
77019;BME280;66044;53.142;17.962;2023-02-24T03:04:06;99956.65;;;6.68;74.51
77019;BME280;66044;53.142;17.962;2023-02-24T03:06:40;99960.11;;;6.67;74.42
77019;BME280;66044;53.142;17.962;2023-02-24T03:09:15;99956.56;;;6.66;74.46
77019;BME280;66044;53.142;17.962;2023-02-24T03:11:46;99953.04;;;6.65;74.59
77019;BME280;66044;53.142;17.962;2023-02-24T03:14:22;99953.00;;;6.63;74.34
77019;BME280;66044;53.142;17.962;2023-02-24T03:16:52;99952.04;;;6.61;74.51
77019;BME280;66044;53.142;17.962;2023-02-24T03:19:26;99949.16;;;6.58;74.49
77019;BME280;66044;53.142;17.962;2023-02-24T03:22:14;99945.04;;;6.55;74.48
77019;BME280;66044;53.142;17.962;2023-02-24T03:24:44;99942.16;;;6.55;74.57
77019;BME280;66044;53.142;17.962;2023-02-24T03:27:28;99942.13;;;6.56;74.56
77019;BME280;66044;53.142;17.962;2023-02-24T03:30:03;99940.15;;;6.58;74.50
77019;BME280;66044;53.142;17.962;2023-02-24T03:32:39;99940.30;;;6.59;74.55
77019;BME280;66044;53.142;17.962;2023-02-24T03:35:26;99943.48;;;6.59;74.45
77019;BME280;66044;53.142;17.962;2023-02-24T03:37:55;99935.85;;;6.59;74.35
77019;BME280;66044;53.142;17.962;2023-02-24T03:40:23;99936.10;;;6.59;74.51
77019;BME280;66044;53.142;17.962;2023-02-24T03:45:43;99928.05;;;6.60;74.39
77019;BME280;66044;53.142;17.962;2023-02-24T03:48:10;99926.94;;;6.59;74.29
77019;BME280;66044;53.142;17.962;2023-02-24T03:50:40;99926.84;;;6.58;74.40
77019;BME280;66044;53.142;17.962;2023-02-24T04:01:39;99917.63;;;6.65;74.45
77019;BME280;66044;53.142;17.962;2023-02-24T04:07:16;99910.02;;;6.60;74.22
77019;BME280;66044;53.142;17.962;2023-02-24T04:10:26;99907.54;;;6.60;74.24
77019;BME280;66044;53.142;17.962;2023-02-24T04:13:12;99903.49;;;6.59;74.19
77019;BME280;66044;53.142;17.962;2023-02-24T04:15:51;99899.91;;;6.58;74.19
77019;BME280;66044;53.142;17.962;2023-02-24T04:18:27;99900.63;;;6.57;74.29
77019;BME280;66044;53.142;17.962;2023-02-24T04:20:56;99896.02;;;6.58;74.15
77019;BME280;66044;53.142;17.962;2023-02-24T04:23:28;99891.72;;;6.59;74.42
77019;BME280;66044;53.142;17.962;2023-02-24T04:25:57;99890.90;;;6.59;74.26
77019;BME280;66044;53.142;17.962;2023-02-24T04:28:24;99890.96;;;6.59;74.28
77019;BME280;66044;53.142;17.962;2023-02-24T04:30:56;99884.44;;;6.59;74.20
77019;BME280;66044;53.142;17.962;2023-02-24T04:33:24;99886.86;;;6.61;74.23
77019;BME280;66044;53.142;17.962;2023-02-24T04:35:50;99884.50;;;6.59;74.13
77019;BME280;66044;53.142;17.962;2023-02-24T04:38:19;99879.95;;;6.60;74.06
77019;BME280;66044;53.142;17.962;2023-02-24T04:40:45;99877.54;;;6.59;74.03
77019;BME280;66044;53.142;17.962;2023-02-24T04:43:12;99873.70;;;6.58;74.07
77019;BME280;66044;53.142;17.962;2023-02-24T04:45:38;99872.23;;;6.57;74.07
77019;BME280;66044;53.142;17.962;2023-02-24T04:48:05;99872.60;;;6.57;74.08
77019;BME280;66044;53.142;17.962;2023-02-24T04:50:40;99870.66;;;6.58;74.05
77019;BME280;66044;53.142;17.962;2023-02-24T04:55:38;99862.90;;;6.59;73.98
77019;BME280;66044;53.142;17.962;2023-02-24T04:58:12;99864.77;;;6.57;74.02
77019;BME280;66044;53.142;17.962;2023-02-24T05:00:39;99861.30;;;6.57;73.93
77019;BME280;66044;53.142;17.962;2023-02-24T05:03:09;99857.56;;;6.57;73.91
77019;BME280;66044;53.142;17.962;2023-02-24T05:05:36;99855.27;;;6.57;73.90
77019;BME280;66044;53.142;17.962;2023-02-24T05:08:08;99848.30;;;6.56;74.03
77019;BME280;66044;53.142;17.962;2023-02-24T05:10:42;99852.55;;;6.56;74.03
77019;BME280;66044;53.142;17.962;2023-02-24T05:13:13;99845.88;;;6.55;74.00
77019;BME280;66044;53.142;17.962;2023-02-24T05:15:42;99842.27;;;6.54;74.11
77019;BME280;66044;53.142;17.962;2023-02-24T05:18:11;99840.06;;;6.54;74.17
77019;BME280;66044;53.142;17.962;2023-02-24T05:20:44;99838.50;;;6.55;74.15
77019;BME280;66044;53.142;17.962;2023-02-24T05:23:32;99835.40;;;6.56;74.24
77019;BME280;66044;53.142;17.962;2023-02-24T05:26:01;99828.18;;;6.56;74.19
77019;BME280;66044;53.142;17.962;2023-02-24T05:28:28;99827.46;;;6.57;74.06
77019;BME280;66044;53.142;17.962;2023-02-24T05:31:10;99827.15;;;6.57;74.23
77019;BME280;66044;53.142;17.962;2023-02-24T05:33:41;99826.52;;;6.58;74.30
77019;BME280;66044;53.142;17.962;2023-02-24T05:36:11;99827.66;;;6.60;74.14
77019;BME280;66044;53.142;17.962;2023-02-24T05:38:40;99825.08;;;6.60;74.24
77019;BME280;66044;53.142;17.962;2023-02-24T05:41:11;99823.81;;;6.61;74.22
77019;BME280;66044;53.142;17.962;2023-02-24T05:43:53;99822.00;;;6.62;74.31
77019;BME280;66044;53.142;17.962;2023-02-24T05:46:25;99821.75;;;6.61;74.39
77019;BME280;66044;53.142;17.962;2023-02-24T05:48:55;99820.53;;;6.61;74.25
77019;BME280;66044;53.142;17.962;2023-02-24T05:51:26;99820.67;;;6.61;74.36
77019;BME280;66044;53.142;17.962;2023-02-24T05:53:53;99819.45;;;6.61;74.47
77019;BME280;66044;53.142;17.962;2023-02-24T05:56:23;99820.52;;;6.62;74.43
77019;BME280;66044;53.142;17.962;2023-02-24T05:58:50;99820.75;;;6.63;74.39
77019;BME280;66044;53.142;17.962;2023-02-24T06:01:28;99825.96;;;6.66;74.53
77019;BME280;66044;53.142;17.962;2023-02-24T06:03:58;99823.70;;;6.66;74.22
77019;BME280;66044;53.142;17.962;2023-02-24T06:06:35;99829.72;;;6.68;74.64
77019;BME280;66044;53.142;17.962;2023-02-24T06:09:03;99829.30;;;6.69;74.23
77019;BME280;66044;53.142;17.962;2023-02-24T06:11:37;99825.75;;;6.62;73.85
77019;BME280;66044;53.142;17.962;2023-02-24T06:14:03;99828.35;;;6.55;73.78
77019;BME280;66044;53.142;17.962;2023-02-24T06:16:37;99824.87;;;6.46;73.70
77019;BME280;66044;53.142;17.962;2023-02-24T06:19:06;99824.13;;;6.39;73.82
77019;BME280;66044;53.142;17.962;2023-02-24T06:21:34;99819.12;;;6.34;73.56
77019;BME280;66044;53.142;17.962;2023-02-24T06:24:01;99818.45;;;6.29;73.69
77019;BME280;66044;53.142;17.962;2023-02-24T06:26:27;99814.92;;;6.23;73.59
77019;BME280;66044;53.142;17.962;2023-02-24T06:28:59;99811.89;;;6.18;73.35
77019;BME280;66044;53.142;17.962;2023-02-24T06:31:25;99815.32;;;6.14;73.53
77019;BME280;66044;53.142;17.962;2023-02-24T06:33:54;99811.64;;;6.12;73.79
77019;BME280;66044;53.142;17.962;2023-02-24T06:36:22;99816.51;;;6.12;73.63
77019;BME280;66044;53.142;17.962;2023-02-24T06:38:48;99815.24;;;6.11;73.64
77019;BME280;66044;53.142;17.962;2023-02-24T06:41:15;99813.05;;;6.11;73.56
77019;BME280;66044;53.142;17.962;2023-02-24T06:43:43;99812.20;;;6.11;73.71
77019;BME280;66044;53.142;17.962;2023-02-24T06:46:11;99810.67;;;6.13;73.81
77019;BME280;66044;53.142;17.962;2023-02-24T06:48:38;99809.27;;;6.14;73.64
77019;BME280;66044;53.142;17.962;2023-02-24T06:51:07;99802.05;;;6.12;73.61
77019;BME280;66044;53.142;17.962;2023-02-24T06:53:35;99798.34;;;6.11;73.55
77019;BME280;66044;53.142;17.962;2023-02-24T06:56:10;99797.94;;;6.12;73.76
77019;BME280;66044;53.142;17.962;2023-02-24T06:58:43;99795.43;;;6.14;73.58
77019;BME280;66044;53.142;17.962;2023-02-24T07:01:15;99795.64;;;6.16;73.61
77019;BME280;66044;53.142;17.962;2023-02-24T07:03:42;99795.79;;;6.19;73.78
77019;BME280;66044;53.142;17.962;2023-02-24T07:06:29;99797.80;;;6.22;73.60
77019;BME280;66044;53.142;17.962;2023-02-24T07:08:57;99793.88;;;6.19;73.44
77019;BME280;66044;53.142;17.962;2023-02-24T07:11:24;99793.48;;;6.15;73.28
77019;BME280;66044;53.142;17.962;2023-02-24T07:13:50;99794.27;;;6.10;73.05
77019;BME280;66044;53.142;17.962;2023-02-24T07:16:21;99798.95;;;6.06;72.87
77019;BME280;66044;53.142;17.962;2023-02-24T07:18:54;99800.54;;;6.00;72.60
77019;BME280;66044;53.142;17.962;2023-02-24T07:21:23;99799.55;;;5.95;72.64
77019;BME280;66044;53.142;17.962;2023-02-24T07:23:50;99798.77;;;5.88;72.62
77019;BME280;66044;53.142;17.962;2023-02-24T07:26:23;99798.60;;;5.80;72.59
77019;BME280;66044;53.142;17.962;2023-02-24T07:28:52;99794.83;;;5.74;72.63
77019;BME280;66044;53.142;17.962;2023-02-24T07:31:21;99799.23;;;5.71;72.64
77019;BME280;66044;53.142;17.962;2023-02-24T07:33:52;99799.42;;;5.65;72.51
77019;BME280;66044;53.142;17.962;2023-02-24T07:36:21;99798.15;;;5.58;72.37
77019;BME280;66044;53.142;17.962;2023-02-24T07:38:52;99796.83;;;5.47;71.89
77019;BME280;66044;53.142;17.962;2023-02-24T07:41:21;99793.21;;;5.36;71.71
77019;BME280;66044;53.142;17.962;2023-02-24T07:43:52;99793.09;;;5.28;71.84
77019;BME280;66044;53.142;17.962;2023-02-24T07:46:22;99792.79;;;5.20;71.58
77019;BME280;66044;53.142;17.962;2023-02-24T07:48:51;99792.48;;;5.17;71.60
77019;BME280;66044;53.142;17.962;2023-02-24T07:51:20;99790.16;;;5.13;71.39
77019;BME280;66044;53.142;17.962;2023-02-24T07:53:48;99790.32;;;5.06;71.04
77019;BME280;66044;53.142;17.962;2023-02-24T07:56:16;99791.10;;;5.01;70.90
77019;BME280;66044;53.142;17.962;2023-02-24T07:58:47;99787.80;;;4.99;70.66
77019;BME280;66044;53.142;17.962;2023-02-24T08:01:18;99786.55;;;5.00;70.51
77019;BME280;66044;53.142;17.962;2023-02-24T08:03:55;99783.55;;;5.05;70.19
77019;BME280;66044;53.142;17.962;2023-02-24T08:06:23;99786.27;;;5.04;69.81
77019;BME280;66044;53.142;17.962;2023-02-24T08:08:58;99780.11;;;5.06;69.72
77019;BME280;66044;53.142;17.962;2023-02-24T08:11:26;99777.79;;;5.05;69.30
77019;BME280;66044;53.142;17.962;2023-02-24T08:14:02;99774.35;;;5.06;68.96
77019;BME280;66044;53.142;17.962;2023-02-24T08:16:29;99770.03;;;5.06;68.98
77019;BME280;66044;53.142;17.962;2023-02-24T08:19:05;99768.98;;;5.09;68.75
77019;BME280;66044;53.142;17.962;2023-02-24T08:21:32;99766.20;;;5.09;68.62
77019;BME280;66044;53.142;17.962;2023-02-24T08:24:12;99765.66;;;5.07;68.42
77019;BME280;66044;53.142;17.962;2023-02-24T08:26:47;99763.47;;;5.10;68.27
77019;BME280;66044;53.142;17.962;2023-02-24T08:29:37;99760.71;;;5.11;68.07
77019;BME280;66044;53.142;17.962;2023-02-24T08:32:32;99756.39;;;5.15;67.97
77019;BME280;66044;53.142;17.962;2023-02-24T08:35:00;99750.54;;;5.20;67.97
77019;BME280;66044;53.142;17.962;2023-02-24T08:37:33;99755.65;;;5.28;67.88
77019;BME280;66044;53.142;17.962;2023-02-24T08:40:09;99745.33;;;5.32;67.75
77019;BME280;66044;53.142;17.962;2023-02-24T08:45:50;99749.29;;;5.29;67.31
77019;BME280;66044;53.142;17.962;2023-02-24T08:48:21;99749.05;;;5.28;67.30
77019;BME280;66044;53.142;17.962;2023-02-24T08:50:53;99749.08;;;5.29;67.34
77019;BME280;66044;53.142;17.962;2023-02-24T08:53:21;99743.70;;;5.31;67.32
77019;BME280;66044;53.142;17.962;2023-02-24T08:55:48;99741.20;;;5.34;66.92
77019;BME280;66044;53.142;17.962;2023-02-24T08:58:18;99740.96;;;5.36;66.93
77019;BME280;66044;53.142;17.962;2023-02-24T09:00:45;99733.64;;;5.38;66.87
77019;BME280;66044;53.142;17.962;2023-02-24T09:03:16;99730.86;;;5.40;66.64
77019;BME280;66044;53.142;17.962;2023-02-24T09:08:32;99721.81;;;5.49;66.69
77019;BME280;66044;53.142;17.962;2023-02-24T09:11:00;99722.92;;;5.55;66.55
77019;BME280;66044;53.142;17.962;2023-02-24T09:13:27;99723.74;;;5.57;66.56
77019;BME280;66044;53.142;17.962;2023-02-24T09:16:02;99718.77;;;5.60;66.37
77019;BME280;66044;53.142;17.962;2023-02-24T09:18:29;99718.45;;;5.60;66.28
77019;BME280;66044;53.142;17.962;2023-02-24T09:20:56;99716.48;;;5.58;66.18
77019;BME280;66044;53.142;17.962;2023-02-24T09:23:41;99708.64;;;5.58;66.25
77019;BME280;66044;53.142;17.962;2023-02-24T09:26:13;99706.72;;;5.54;65.88
77019;BME280;66044;53.142;17.962;2023-02-24T09:28:40;99706.27;;;5.49;65.82
77019;BME280;66044;53.142;17.962;2023-02-24T09:31:20;99700.64;;;5.43;65.77
77019;BME280;66044;53.142;17.962;2023-02-24T09:33:49;99695.84;;;5.42;65.81
77019;BME280;66044;53.142;17.962;2023-02-24T09:36:20;99691.96;;;5.42;65.70
77019;BME280;66044;53.142;17.962;2023-02-24T09:38:56;99687.45;;;5.43;65.87
77019;BME280;66044;53.142;17.962;2023-02-24T09:41:43;99683.81;;;5.43;65.74
77019;BME280;66044;53.142;17.962;2023-02-24T09:44:34;99683.91;;;5.44;65.72
77019;BME280;66044;53.142;17.962;2023-02-24T09:47:14;99676.77;;;5.44;65.70
77019;BME280;66044;53.142;17.962;2023-02-24T09:49:53;99680.44;;;5.46;65.66
77019;BME280;66044;53.142;17.962;2023-02-24T09:52:24;99675.70;;;5.42;65.59
77019;BME280;66044;53.142;17.962;2023-02-24T09:58:05;99676.21;;;5.28;65.44
77019;BME280;66044;53.142;17.962;2023-02-24T10:00:52;99669.36;;;5.21;65.37
77019;BME280;66044;53.142;17.962;2023-02-24T10:03:33;99667.80;;;5.15;65.45
77019;BME280;66044;53.142;17.962;2023-02-24T10:06:18;99666.84;;;5.10;65.41
77019;BME280;66044;53.142;17.962;2023-02-24T10:08:56;99659.27;;;5.11;65.56
77019;BME280;66044;53.142;17.962;2023-02-24T10:11:25;99655.31;;;5.16;65.53
77019;BME280;66044;53.142;17.962;2023-02-24T10:14:03;99655.76;;;5.19;65.36
77019;BME280;66044;53.142;17.962;2023-02-24T10:16:39;99647.96;;;5.18;65.49
77019;BME280;66044;53.142;17.962;2023-02-24T10:24:27;99644.39;;;5.27;65.45
77019;BME280;66044;53.142;17.962;2023-02-24T10:33:17;99626.34;;;5.36;64.87
77019;BME280;66044;53.142;17.962;2023-02-24T10:35:44;99628.25;;;5.37;64.52
77019;BME280;66044;53.142;17.962;2023-02-24T10:38:10;99627.38;;;5.38;64.30
77019;BME280;66044;53.142;17.962;2023-02-24T10:41:03;99620.27;;;5.37;64.12
77019;BME280;66044;53.142;17.962;2023-02-24T10:43:32;99614.52;;;5.35;64.03
77019;BME280;66044;53.142;17.962;2023-02-24T10:46:30;99615.39;;;5.39;64.18
77019;BME280;66044;53.142;17.962;2023-02-24T10:49:00;99607.56;;;5.43;63.78
77019;BME280;66044;53.142;17.962;2023-02-24T10:51:35;99600.52;;;5.42;63.70
77019;BME280;66044;53.142;17.962;2023-02-24T10:54:18;99598.84;;;5.40;63.38
77019;BME280;66044;53.142;17.962;2023-02-24T10:57:04;99595.15;;;5.39;63.21
77019;BME280;66044;53.142;17.962;2023-02-24T10:59:51;99585.70;;;5.33;63.30
77019;BME280;66044;53.142;17.962;2023-02-24T11:02:37;99585.45;;;5.27;63.22
77019;BME280;66044;53.142;17.962;2023-02-24T11:05:25;99579.52;;;5.20;63.08
77019;BME280;66044;53.142;17.962;2023-02-24T11:08:13;99570.67;;;5.14;63.07
77019;BME280;66044;53.142;17.962;2023-02-24T11:10:51;99566.30;;;5.08;63.12
77019;BME280;66044;53.142;17.962;2023-02-24T11:13:32;99566.05;;;5.04;63.23
77019;BME280;66044;53.142;17.962;2023-02-24T11:16:17;99565.09;;;4.99;63.05
77019;BME280;66044;53.142;17.962;2023-02-24T11:19:19;99558.98;;;4.91;63.15
77019;BME280;66044;53.142;17.962;2023-02-24T11:21:46;99553.52;;;4.85;63.32
77019;BME280;66044;53.142;17.962;2023-02-24T11:24:17;99551.14;;;4.82;63.59
77019;BME280;66044;53.142;17.962;2023-02-24T11:26:44;99542.58;;;4.81;63.58
77019;BME280;66044;53.142;17.962;2023-02-24T11:29:28;99541.41;;;4.81;63.76
77019;BME280;66044;53.142;17.962;2023-02-24T11:34:58;99533.23;;;4.76;63.60
77019;BME280;66044;53.142;17.962;2023-02-24T11:37:35;99526.46;;;4.79;63.59
77019;BME280;66044;53.142;17.962;2023-02-24T11:40:24;99524.35;;;4.83;63.32
77019;BME280;66044;53.142;17.962;2023-02-24T11:43:18;99518.59;;;4.85;63.09
77019;BME280;66044;53.142;17.962;2023-02-24T11:45:51;99514.71;;;4.82;62.90
77019;BME280;66044;53.142;17.962;2023-02-24T11:48:25;99514.66;;;4.79;62.83
77019;BME280;66044;53.142;17.962;2023-02-24T11:50:56;99513.84;;;4.76;62.75
77019;BME280;66044;53.142;17.962;2023-02-24T11:53:35;99512.91;;;4.75;62.61
77019;BME280;66044;53.142;17.962;2023-02-24T11:58:41;99504.33;;;4.75;62.35
77019;BME280;66044;53.142;17.962;2023-02-24T12:01:22;99504.23;;;4.75;62.03
77019;BME280;66044;53.142;17.962;2023-02-24T12:06:58;99498.31;;;4.86;61.73
77019;BME280;66044;53.142;17.962;2023-02-24T12:09:43;99494.88;;;4.91;61.21
77019;BME280;66044;53.142;17.962;2023-02-24T12:12:23;99491.34;;;4.95;60.98
77019;BME280;66044;53.142;17.962;2023-02-24T12:14:56;99489.98;;;5.01;60.72
77019;BME280;66044;53.142;17.962;2023-02-24T12:17:31;99484.19;;;5.04;60.55
77019;BME280;66044;53.142;17.962;2023-02-24T12:20:05;99480.56;;;5.03;60.18
77019;BME280;66044;53.142;17.962;2023-02-24T12:22:41;99478.92;;;4.96;60.21
77019;BME280;66044;53.142;17.962;2023-02-24T12:25:12;99480.46;;;4.93;60.24
77019;BME280;66044;53.142;17.962;2023-02-24T12:27:52;99475.84;;;4.88;60.33
77019;BME280;66044;53.142;17.962;2023-02-24T12:30:33;99471.23;;;4.87;60.40
77019;BME280;66044;53.142;17.962;2023-02-24T12:33:25;99471.38;;;4.89;60.17
77019;BME280;66044;53.142;17.962;2023-02-24T12:36:01;99466.05;;;4.86;60.22
77019;BME280;66044;53.142;17.962;2023-02-24T12:42:00;99455.23;;;4.75;59.86
77019;BME280;66044;53.142;17.962;2023-02-24T12:44:40;99454.54;;;4.73;59.98
77019;BME280;66044;53.142;17.962;2023-02-24T12:47:12;99448.74;;;4.71;59.80
77019;BME280;66044;53.142;17.962;2023-02-24T12:49:54;99445.95;;;4.73;60.06
77019;BME280;66044;53.142;17.962;2023-02-24T12:52:30;99436.35;;;4.80;59.93
77019;BME280;66044;53.142;17.962;2023-02-24T12:55:08;99429.02;;;4.86;59.78
77019;BME280;66044;53.142;17.962;2023-02-24T12:57:58;99434.75;;;4.94;59.81
77019;BME280;66044;53.142;17.962;2023-02-24T13:00:56;99428.10;;;4.97;59.57
77019;BME280;66044;53.142;17.962;2023-02-24T13:09:23;99413.29;;;5.05;59.55
77019;BME280;66044;53.142;17.962;2023-02-24T13:12:01;99418.52;;;5.11;59.63
77019;BME280;66044;53.142;17.962;2023-02-24T13:14:34;99414.32;;;5.14;59.63
77019;BME280;66044;53.142;17.962;2023-02-24T13:17:23;99409.13;;;5.12;59.76
77019;BME280;66044;53.142;17.962;2023-02-24T13:19:53;99401.39;;;5.08;59.59
77019;BME280;66044;53.142;17.962;2023-02-24T13:27:26;99387.05;;;5.01;59.62
77019;BME280;66044;53.142;17.962;2023-02-24T13:29:56;99382.20;;;5.01;59.78
77019;BME280;66044;53.142;17.962;2023-02-24T13:32:33;99377.07;;;5.00;59.92
77019;BME280;66044;53.142;17.962;2023-02-24T13:37:36;99374.16;;;5.02;59.83
77019;BME280;66044;53.142;17.962;2023-02-24T13:45:27;99370.05;;;5.06;59.87
77019;BME280;66044;53.142;17.962;2023-02-24T13:50:57;99358.75;;;5.05;60.27
77019;BME280;66044;53.142;17.962;2023-02-24T13:53:51;99358.20;;;5.02;60.12
77019;BME280;66044;53.142;17.962;2023-02-24T13:56:43;99351.79;;;4.98;60.10
77019;BME280;66044;53.142;17.962;2023-02-24T13:59:29;99342.02;;;4.93;60.03
77019;BME280;66044;53.142;17.962;2023-02-24T14:02:15;99340.48;;;4.92;60.12
77019;BME280;66044;53.142;17.962;2023-02-24T14:04:50;99339.45;;;4.93;60.20
77019;BME280;66044;53.142;17.962;2023-02-24T14:07:28;99334.13;;;4.95;60.37
77019;BME280;66044;53.142;17.962;2023-02-24T14:10:00;99332.00;;;4.95;60.14
77019;BME280;66044;53.142;17.962;2023-02-24T14:12:29;99328.17;;;4.93;60.51
77019;BME280;66044;53.142;17.962;2023-02-24T14:14:57;99324.39;;;4.94;60.16
77019;BME280;66044;53.142;17.962;2023-02-24T14:17:33;99321.17;;;4.96;60.13
77019;BME280;66044;53.142;17.962;2023-02-24T14:20:18;99320.15;;;4.99;60.13
77019;BME280;66044;53.142;17.962;2023-02-24T14:25:19;99308.86;;;5.04;59.61
77019;BME280;66044;53.142;17.962;2023-02-24T14:27:48;99307.63;;;5.08;59.54
77019;BME280;66044;53.142;17.962;2023-02-24T14:33:01;99300.69;;;5.16;59.27
77019;BME280;66044;53.142;17.962;2023-02-24T14:38:02;99290.36;;;5.14;59.03
77019;BME280;66044;53.142;17.962;2023-02-24T14:40:29;99288.52;;;5.11;58.92
77019;BME280;66044;53.142;17.962;2023-02-24T14:42:55;99289.22;;;5.06;58.67
77019;BME280;66044;53.142;17.962;2023-02-24T14:45:27;99286.41;;;5.01;58.89
77019;BME280;66044;53.142;17.962;2023-02-24T14:47:55;99282.19;;;5.00;58.78
77019;BME280;66044;53.142;17.962;2023-02-24T14:50:31;99280.44;;;4.99;58.93
77019;BME280;66044;53.142;17.962;2023-02-24T14:53:12;99273.42;;;4.98;58.76
77019;BME280;66044;53.142;17.962;2023-02-24T14:55:41;99272.17;;;4.95;58.61
77019;BME280;66044;53.142;17.962;2023-02-24T14:58:48;99270.34;;;4.91;58.67
77019;BME280;66044;53.142;17.962;2023-02-24T15:01:35;99263.40;;;4.86;58.68